createdAt,value
2024-03-12T00:01:52.176Z,16.77
2024-03-12T00:06:54.406Z,15.20
2024-03-12T00:11:56.718Z,18.60
2024-03-12T00:17:01.211Z,17.05
2024-03-12T00:22:03.563Z,18.10
2024-03-12T00:27:07.238Z,14.50
2024-03-12T00:32:10.807Z,16.58
2024-03-12T00:37:13.032Z,18.23
2024-03-12T00:42:15.383Z,20.10
2024-03-12T00:47:19.000Z,15.95
2024-03-12T00:52:23.861Z,17.75
2024-03-12T00:57:28.347Z,18.98
2024-03-12T01:02:31.893Z,19.35
2024-03-12T01:07:35.196Z,19.27
2024-03-12T01:12:39.188Z,22.20
2024-03-12T01:17:43.614Z,21.42
2024-03-12T01:22:46.082Z,19.70
2024-03-12T01:27:48.757Z,18.80
2024-03-12T01:32:52.775Z,22.02
2024-03-12T01:37:58.194Z,21.05
2024-03-12T01:43:10.625Z,18.58
2024-03-12T01:48:14.426Z,19.08
2024-03-12T01:53:17.587Z,17.73
2024-03-12T01:58:19.935Z,20.17
2024-03-12T02:08:26.361Z,18.15
2024-03-12T02:13:28.553Z,17.17
2024-03-12T02:18:34.229Z,14.75
2024-03-12T02:23:38.855Z,17.38
2024-03-12T02:28:41.135Z,16.13
2024-03-12T02:33:43.564Z,16.45
2024-03-12T02:38:47.255Z,16.10
2024-03-12T02:43:49.521Z,18.40
2024-03-12T02:48:54.590Z,16.48
2024-03-12T02:53:58.226Z,17.38
2024-03-12T02:59:00.460Z,14.23
2024-03-12T03:04:03.393Z,20.15
2024-03-12T03:14:09.121Z,18.85
2024-03-12T03:19:11.693Z,18.17
2024-03-12T03:24:15.352Z,18.55
2024-03-12T03:29:17.614Z,18.75
2024-03-12T03:34:19.815Z,19.92
2024-03-12T03:39:25.604Z,20.50
2024-03-12T03:44:29.352Z,15.35
2024-03-12T03:49:31.718Z,17.08
2024-03-12T03:54:35.304Z,15.15
2024-03-12T03:59:37.484Z,17.65
2024-03-12T04:04:39.693Z,17.42
2024-03-12T04:09:43.464Z,18.58
2024-03-12T04:14:45.662Z,17.70
2024-03-12T04:19:49.142Z,16.83
2024-03-12T04:24:52.636Z,17.85
2024-03-12T04:29:54.791Z,16.52
2024-03-12T04:34:56.902Z,18.88
2024-03-12T04:40:00.785Z,17.02
2024-03-12T04:45:05.837Z,17.45
2024-03-12T04:50:09.550Z,16.15
2024-03-12T04:55:14.761Z,15.38
2024-03-12T05:00:21.080Z,16.08
2024-03-12T05:05:24.759Z,14.70
2024-03-12T05:10:28.470Z,16.63
2024-03-12T05:15:30.750Z,16.00
2024-03-12T05:20:34.857Z,16.63
2024-03-12T05:25:41.670Z,15.57
2024-03-12T05:30:44.157Z,17.20
2024-03-12T05:35:50.841Z,15.68
2024-03-12T05:41:09.926Z,15.98
2024-03-12T05:46:31.190Z,14.52
2024-03-12T05:51:36.165Z,15.48
2024-03-12T05:56:40.702Z,14.15
2024-03-12T06:01:43.112Z,14.93
2024-03-12T06:06:45.512Z,16.65
2024-03-12T06:11:49.051Z,15.27
2024-03-12T06:16:51.316Z,13.35
2024-03-12T06:21:53.493Z,13.30
2024-03-12T06:26:57.567Z,14.57
2024-03-12T06:32:00.476Z,15.35
2024-03-12T06:37:04.176Z,18.33
2024-03-12T06:42:08.817Z,18.08
2024-03-12T06:47:11.573Z,15.23
2024-03-12T06:52:13.814Z,14.25
2024-03-12T06:57:21.185Z,13.60
2024-03-12T07:02:23.540Z,14.95
2024-03-12T07:07:26.663Z,14.82
2024-03-12T07:12:31.661Z,13.30
2024-03-12T07:17:34.558Z,12.95
2024-03-12T07:27:41.506Z,15.23
2024-03-12T07:32:43.789Z,14.43
2024-03-12T07:37:47.283Z,13.80
2024-03-12T07:42:51.062Z,14.57
2024-03-12T07:47:53.495Z,15.95
2024-03-12T07:52:57.049Z,15.23
2024-03-12T07:58:02.457Z,14.57
2024-03-12T08:03:04.970Z,15.05
2024-03-12T08:08:08.883Z,14.50
2024-03-12T08:13:12.601Z,14.40
2024-03-12T08:18:20.547Z,18.55
2024-03-12T08:28:29.211Z,17.73
2024-03-12T08:33:31.556Z,12.85
2024-03-12T08:38:34.427Z,16.50
2024-03-12T08:43:38.230Z,14.10
2024-03-12T08:48:40.522Z,13.65
2024-03-12T08:53:42.745Z,13.23
2024-03-12T08:58:46.310Z,17.83
2024-03-12T09:03:48.602Z,18.42
2024-03-12T09:08:51.918Z,19.13
2024-03-12T09:13:55.542Z,22.92
2024-03-12T09:18:57.746Z,15.60
2024-03-12T09:24:02.249Z,17.15
2024-03-12T09:29:09.073Z,21.67
2024-03-12T09:34:12.088Z,19.80
2024-03-12T09:39:14.541Z,20.05
2024-03-12T09:44:18.091Z,19.73
2024-03-12T09:49:20.527Z,16.13
2024-03-12T09:54:24.940Z,18.63
2024-03-12T09:59:28.434Z,23.02
2024-03-12T10:04:30.854Z,35.20
2024-03-12T10:09:33.222Z,22.02
2024-03-12T10:14:36.781Z,19.92
2024-03-12T10:19:39.065Z,19.92
2024-03-12T10:24:41.213Z,21.73
2024-03-12T10:29:44.906Z,25.70
2024-03-12T10:34:48.147Z,22.75
2024-03-12T10:39:50.400Z,19.58
2024-03-12T10:44:53.886Z,23.52
2024-03-12T10:49:57.811Z,24.83
2024-03-12T10:55:05.838Z,20.60
2024-03-12T11:00:21.830Z,22.73
2024-03-12T11:05:28.952Z,23.33
2024-03-12T11:10:33.813Z,25.00
2024-03-12T11:15:37.800Z,23.83
2024-03-12T11:20:41.166Z,24.25
2024-03-12T11:25:46.992Z,19.25
2024-03-12T11:31:05.580Z,22.35
2024-03-12T11:36:09.911Z,17.13
2024-03-12T11:41:12.611Z,18.20
2024-03-12T11:46:22.153Z,17.90
2024-03-12T11:51:24.503Z,19.52
2024-03-12T11:56:28.606Z,19.27
2024-03-12T12:01:33.826Z,21.55
2024-03-12T12:06:37.436Z,18.83
2024-03-12T12:11:41.788Z,17.88
2024-03-12T12:16:45.591Z,18.00
2024-03-12T12:21:47.851Z,16.67
2024-03-12T12:26:50.229Z,18.33
2024-03-12T12:31:54.501Z,16.35
2024-03-12T12:36:57.362Z,16.55
2024-03-12T12:47:05.931Z,13.25
2024-03-12T12:52:08.661Z,12.88
2024-03-12T12:57:11.940Z,14.00
2024-03-12T13:02:19.847Z,13.55
2024-03-12T13:07:33.028Z,13.98
2024-03-12T13:12:36.217Z,14.35
2024-03-12T13:17:40.844Z,14.82
2024-03-12T13:22:44.963Z,15.15
2024-03-12T13:27:47.554Z,14.73
2024-03-12T13:32:52.348Z,16.08
2024-03-12T13:37:54.524Z,11.73
2024-03-12T13:42:57.404Z,14.68
2024-03-12T13:48:01.226Z,18.00
2024-03-12T13:53:04.595Z,20.35
2024-03-12T13:58:08.434Z,13.85
2024-03-12T14:03:12.573Z,18.85
2024-03-12T14:08:15.404Z,18.73
2024-03-12T14:13:20.293Z,18.73
2024-03-12T14:18:24.632Z,19.92
2024-03-12T14:23:27.726Z,16.10
2024-03-12T14:28:31.074Z,15.98
2024-03-12T14:33:34.774Z,17.80
2024-03-12T14:38:37.006Z,16.27
2024-03-12T14:43:39.687Z,16.15
2024-03-12T14:48:43.301Z,15.90
2024-03-12T14:53:45.656Z,15.63
2024-03-12T14:58:47.915Z,12.73
2024-03-12T15:03:51.582Z,16.80
2024-03-12T15:08:55.465Z,16.67
2024-03-12T15:13:57.629Z,20.05
2024-03-12T15:19:01.169Z,19.23
2024-03-12T15:24:03.697Z,19.55
2024-03-12T15:29:06.062Z,17.42
2024-03-12T15:34:09.715Z,15.50
2024-03-12T15:39:12.068Z,14.80
2024-03-12T15:44:14.582Z,13.98
2024-03-12T15:49:18.850Z,19.52
2024-03-12T15:54:21.130Z,19.48
2024-03-12T15:59:23.382Z,14.77
2024-03-12T16:04:27.045Z,14.68
2024-03-12T16:09:30.595Z,15.48
2024-03-12T16:14:32.817Z,12.15
2024-03-12T16:19:37.008Z,13.43
2024-03-12T16:24:39.181Z,12.27
2024-03-12T16:29:41.459Z,15.07
2024-03-12T16:34:46.438Z,12.00
2024-03-12T16:39:48.801Z,11.68
2024-03-12T16:44:52.961Z,11.57
2024-03-12T16:49:56.462Z,10.43
2024-03-12T16:54:59.618Z,11.27
2024-03-12T17:05:06.983Z,11.52
2024-03-12T17:10:10.034Z,13.50
2024-03-12T17:20:19.114Z,13.25
2024-03-12T17:25:21.880Z,13.98
2024-03-12T17:30:25.821Z,19.00
2024-03-12T17:35:31.164Z,16.17
2024-03-12T17:40:34.095Z,14.63
2024-03-12T17:45:37.072Z,13.77
2024-03-12T17:50:41.285Z,22.27
2024-03-12T17:55:47.152Z,18.42
2024-03-12T18:00:51.975Z,13.40
2024-03-12T18:05:58.012Z,16.70
2024-03-12T18:11:01.781Z,13.18
2024-03-12T18:16:04.660Z,10.50
2024-03-12T18:21:11.831Z,14.65
2024-03-12T18:26:14.102Z,13.48
2024-03-12T18:31:16.679Z,11.55
2024-03-12T18:36:20.543Z,11.77
2024-03-12T18:41:22.947Z,9.55
2024-03-12T18:46:25.294Z,12.95
2024-03-12T18:51:29.679Z,10.45
2024-03-12T18:56:32.429Z,12.98
2024-03-12T19:01:37.426Z,9.32
2024-03-12T19:06:42.779Z,7.28
2024-03-12T19:11:45.504Z,17.10
2024-03-12T19:16:52.535Z,10.77
2024-03-12T19:21:57.045Z,9.77
2024-03-12T19:26:59.344Z,9.52
2024-03-12T19:32:03.993Z,11.88
2024-03-12T19:37:08.728Z,14.05
2024-03-12T19:42:12.844Z,11.02
2024-03-12T19:47:16.844Z,7.82
2024-03-12T19:52:20.725Z,12.35
2024-03-12T19:57:23.045Z,6.75
2024-03-12T20:02:26.641Z,6.85
2024-03-12T20:07:30.893Z,10.45
2024-03-12T20:12:33.119Z,10.52
2024-03-12T20:17:35.283Z,9.90
2024-03-12T20:22:40.336Z,12.82
2024-03-12T20:27:42.663Z,11.43
2024-03-12T20:32:45.469Z,8.30
2024-03-12T20:37:49.186Z,11.30
2024-03-12T20:42:51.422Z,14.32
2024-03-12T20:47:53.756Z,10.10
2024-03-12T20:52:57.398Z,10.95
2024-03-12T20:58:00.205Z,8.63
2024-03-12T21:03:02.534Z,9.07
2024-03-12T21:08:08.357Z,10.65
2024-03-12T21:13:12.435Z,13.25
2024-03-12T21:18:16.181Z,15.55
2024-03-12T21:23:19.845Z,10.88
2024-03-12T21:28:22.509Z,13.65
2024-03-12T21:33:25.821Z,12.82
2024-03-12T21:38:29.999Z,16.13
2024-03-12T21:43:32.173Z,9.65
2024-03-12T21:48:34.314Z,11.73
2024-03-12T21:53:37.986Z,11.18
2024-03-12T21:58:48.553Z,11.55
2024-03-12T22:03:51.770Z,10.68
2024-03-12T22:13:58.624Z,6.70
2024-03-12T22:19:05.328Z,10.63
2024-03-12T22:24:14.205Z,9.75
2024-03-12T22:29:16.424Z,12.68
2024-03-12T22:34:18.824Z,10.40
2024-03-12T22:39:24.071Z,10.57
2024-03-12T22:44:26.840Z,9.07
2024-03-12T22:49:29.254Z,9.38
2024-03-12T22:54:33.836Z,6.72
2024-03-12T22:59:36.606Z,10.65
2024-03-12T23:04:41.027Z,11.00
2024-03-12T23:09:45.112Z,6.88
2024-03-12T23:14:50.025Z,9.05
2024-03-12T23:19:52.085Z,6.32
2024-03-12T23:24:55.800Z,7.00
2024-03-12T23:30:01.188Z,6.97
2024-03-12T23:35:03.571Z,7.00
2024-03-12T23:40:08.444Z,9.32
2024-03-12T23:45:11.116Z,8.63
2024-03-12T23:50:13.377Z,13.77
2024-03-12T23:55:17.036Z,8.48
